Time;durP1;ratioP1;P1;durP2;ratioP2;P2;SDS_P1;SDS_P2;PMS_P1;PMS_P2;Temp;Humidity;BMP_temperature;BMP_pressure;BME280_temperature;BME280_humidity;BME280_pressure;Samples;Min_cycle;Max_cycle;Signal;HPM_P1;HPM_P2
2021/11/07 00:12:21;;;;;;;8.40;1.57;;;10.60;99.90;;;;;;5012044;28;20468;-61
2021/11/07 00:14:51;;;;;;;4.70;1.60;;;10.60;99.90;;;;;;5012884;28;20468;-60
2021/11/07 00:17:22;;;;;;;1.90;1.20;;;10.70;99.90;;;;;;5011649;28;20464;-60
2021/11/07 00:19:52;;;;;;;3.37;1.47;;;10.60;99.90;;;;;;5012700;28;20867;-61
2021/11/07 00:22:26;;;;;;;4.67;1.97;;;10.60;99.90;;;;;;5012119;28;20465;-61
2021/11/07 00:25:19;;;;;;;5.70;2.17;;;10.70;99.90;;;;;;5012417;28;20441;-61
2021/11/07 00:28:05;;;;;;;3.97;1.93;;;10.60;99.90;;;;;;5011508;28;20479;-61
2021/11/07 00:30:39;;;;;;;2.63;1.63;;;10.60;99.90;;;;;;5006613;28;20819;-61
2021/11/07 00:38:31;;;;;;;5.30;2.00;;;10.60;99.90;;;;;;5031692;28;20914;-61
2021/11/07 00:43:37;;;;;;;2.30;1.23;;;10.60;99.90;;;;;;5031058;28;20412;-61
2021/11/07 00:48:50;;;;;;;2.60;1.47;;;10.60;99.90;;;;;;5011591;28;20515;-61
2021/11/07 00:54:01;;;;;;;5.30;1.80;;;10.50;99.90;;;;;;5051612;28;20499;-61
2021/11/07 00:56:36;;;;;;;2.37;1.60;;;10.50;99.90;;;;;;5051809;28;20961;-60
2021/11/07 00:59:24;;;;;;;6.97;1.70;;;10.50;99.90;;;;;;5033398;28;20483;-60
2021/11/07 01:01:59;;;;;;;3.40;1.70;;;10.40;99.90;;;;;;5011994;28;20457;-60
2021/11/07 01:04:29;;;;;;;2.70;1.77;;;10.30;99.90;;;;;;5012536;28;20455;-61
2021/11/07 01:06:56;;;;;;;3.50;1.40;;;10.30;99.90;;;;;;5011784;28;20461;-60
2021/11/07 01:09:23;;;;;;;3.03;1.50;;;10.30;99.90;;;;;;5011945;28;20417;-61
2021/11/07 01:11:51;;;;;;;4.90;1.77;;;10.30;99.90;;;;;;5011546;28;20460;-61
2021/11/07 01:14:18;;;;;;;4.73;1.70;;;10.30;99.90;;;;;;5012120;28;20433;-61
2021/11/07 01:16:45;;;;;;;3.03;2.00;;;10.30;99.90;;;;;;5011362;28;20468;-60
2021/11/07 01:19:12;;;;;;;2.57;1.63;;;10.30;99.90;;;;;;5012010;28;20425;-60
2021/11/07 01:21:41;;;;;;;3.50;1.70;;;10.30;99.90;;;;;;5011331;28;20556;-61
2021/11/07 01:24:22;;;;;;;5.17;1.60;;;10.30;99.90;;;;;;5018156;28;20424;-61
2021/11/07 01:26:53;;;;;;;2.27;1.30;;;10.20;99.90;;;;;;5030734;28;20559;-60
2021/11/07 01:29:23;;;;;;;3.77;1.80;;;10.20;99.90;;;;;;5031543;28;20431;-61
2021/11/07 01:31:51;;;;;;;4.93;1.70;;;10.20;99.90;;;;;;5012031;28;20464;-61
2021/11/07 01:34:45;;;;;;;2.33;1.13;;;10.20;99.90;;;;;;5011855;28;20434;-61
2021/11/07 01:37:35;;;;;;;2.27;1.30;;;10.20;99.90;;;;;;5010710;28;20996;-61
2021/11/07 01:40:12;;;;;;;1.87;1.20;;;10.20;99.90;;;;;;5011806;28;20425;-61
2021/11/07 01:42:42;;;;;;;2.43;1.73;;;10.10;99.90;;;;;;5011164;28;20830;-61
2021/11/07 01:45:38;;;;;;;2.23;1.30;;;10.10;99.90;;;;;;5011251;28;20448;-60
2021/11/07 01:48:09;;;;;;;3.30;1.30;;;10.10;99.90;;;;;;5010493;28;20464;-61
2021/11/07 01:50:44;;;;;;;2.20;1.43;;;10.00;99.90;;;;;;5011269;28;20443;-61
2021/11/07 01:53:22;;;;;;;2.77;2.00;;;10.00;99.90;;;;;;5046274;28;20517;-61
2021/11/07 01:55:52;;;;;;;2.23;1.20;;;10.00;99.90;;;;;;5050697;28;20457;-61
2021/11/07 01:58:20;;;;;;;1.70;1.37;;;9.90;99.90;;;;;;5037937;28;20432;-61
2021/11/07 02:00:48;;;;;;;3.90;1.30;;;9.90;99.90;;;;;;5012441;28;20487;-61
2021/11/07 02:03:15;;;;;;;3.00;1.40;;;9.90;99.90;;;;;;5015149;28;20444;-60
2021/11/07 02:05:43;;;;;;;2.90;1.30;;;9.90;99.90;;;;;;5014477;28;20559;-61
2021/11/07 02:08:11;;;;;;;3.37;1.27;;;9.90;99.90;;;;;;5014698;28;20417;-61
2021/11/07 02:10:39;;;;;;;3.30;1.37;;;9.90;99.90;;;;;;5014862;28;20492;-61
2021/11/07 02:13:07;;;;;;;1.50;1.37;;;9.90;99.90;;;;;;5014772;28;20440;-60
2021/11/07 02:15:35;;;;;;;2.47;1.77;;;9.90;99.90;;;;;;5014873;28;20448;-60
2021/11/07 02:18:03;;;;;;;7.03;1.80;;;9.90;99.90;;;;;;5014297;28;20445;-61
2021/11/07 02:20:32;;;;;;;1.30;1.10;;;9.90;99.90;;;;;;5014699;28;20459;-61
2021/11/07 02:23:01;;;;;;;1.90;1.20;;;9.90;99.90;;;;;;5014096;28;20733;-58
2021/11/07 02:25:28;;;;;;;1.90;1.57;;;9.90;99.90;;;;;;5014507;28;20866;-58
2021/11/07 02:27:56;;;;;;;1.63;1.30;;;9.90;99.90;;;;;;5013908;28;20467;-57
2021/11/07 02:30:23;;;;;;;2.47;1.30;;;9.90;99.90;;;;;;5014890;28;20441;-58
2021/11/07 02:32:51;;;;;;;2.07;1.23;;;9.90;99.90;;;;;;5015196;28;20475;-57
2021/11/07 02:35:20;;;;;;;1.27;1.10;;;9.90;99.90;;;;;;4999322;28;20475;-57
2021/11/07 02:37:48;;;;;;;1.33;0.90;;;9.90;99.90;;;;;;5033994;28;20543;-58
2021/11/07 02:40:15;;;;;;;1.17;1.07;;;9.90;99.90;;;;;;5034804;28;20416;-57
2021/11/07 02:42:43;;;;;;;0.80;0.70;;;9.90;99.90;;;;;;5033839;28;20467;-57
2021/11/07 02:45:12;;;;;;;5.13;1.23;;;10.00;99.90;;;;;;5026997;28;20534;-58
2021/11/07 02:47:40;;;;;;;1.57;1.00;;;10.00;99.90;;;;;;5013409;28;20538;-57
2021/11/07 02:50:09;;;;;;;2.10;1.17;;;10.00;99.90;;;;;;4997073;28;20425;-57
2021/11/07 02:52:36;;;;;;;1.70;1.23;;;10.00;99.90;;;;;;5038810;28;20497;-58
2021/11/07 02:55:04;;;;;;;1.37;1.17;;;10.00;99.90;;;;;;5053979;28;20465;-57
2021/11/07 02:57:31;;;;;;;1.40;1.03;;;10.00;99.90;;;;;;5053231;28;20467;-57
2021/11/07 03:00:02;;;;;;;1.53;1.03;;;10.00;99.90;;;;;;5023912;28;20452;-58
2021/11/07 03:02:30;;;;;;;3.53;1.30;;;10.00;99.90;;;;;;5013691;28;20460;-57
2021/11/07 03:04:58;;;;;;;1.40;1.27;;;10.00;99.90;;;;;;5013402;28;20453;-57
2021/11/07 03:07:26;;;;;;;1.53;1.13;;;9.90;99.90;;;;;;5015077;28;20457;-57
2021/11/07 03:09:53;;;;;;;1.23;1.13;;;9.90;99.90;;;;;;5033709;28;20527;-58
2021/11/07 03:12:20;;;;;;;2.00;0.90;;;10.00;99.90;;;;;;5032463;28;20459;-57
2021/11/07 03:14:51;;;;;;;1.83;1.30;;;10.00;99.90;;;;;;5027311;28;20465;-57
2021/11/07 03:17:22;;;;;;;1.60;1.30;;;10.00;99.90;;;;;;5017294;28;20555;-58
2021/11/07 03:19:50;;;;;;;1.67;1.20;;;10.00;99.90;;;;;;5033604;28;20448;-58
2021/11/07 03:22:19;;;;;;;1.70;1.47;;;9.90;99.90;;;;;;5013122;28;20459;-57
2021/11/07 03:24:52;;;;;;;1.27;1.10;;;9.90;99.90;;;;;;5013603;28;20451;-57
2021/11/07 03:27:39;;;;;;;1.63;1.37;;;9.90;99.90;;;;;;5012713;28;20471;-58
2021/11/07 03:30:20;;;;;;;1.30;1.10;;;10.00;99.90;;;;;;5013447;28;20462;-57
2021/11/07 03:32:49;;;;;;;4.10;1.67;;;10.00;99.90;;;;;;5012805;28;20469;-57
2021/11/07 03:35:17;;;;;;;1.40;1.20;;;10.00;99.90;;;;;;5015115;28;20555;-57
2021/11/07 03:37:55;;;;;;;2.23;2.00;;;9.90;99.90;;;;;;5032271;28;20456;-58
2021/11/07 03:40:25;;;;;;;2.97;1.53;;;10.00;99.90;;;;;;5032981;28;20784;-58
2021/11/07 03:42:55;;;;;;;1.43;1.20;;;10.00;99.90;;;;;;5032430;28;20866;-58
2021/11/07 03:45:23;;;;;;;2.07;1.60;;;10.00;99.90;;;;;;5023441;28;20480;-57
2021/11/07 03:47:50;;;;;;;1.70;1.20;;;10.00;99.90;;;;;;5012172;28;20479;-58
2021/11/07 03:50:19;;;;;;;2.30;1.43;;;10.00;99.90;;;;;;5012940;28;20568;-57
2021/11/07 03:52:48;;;;;;;1.40;1.30;;;10.00;99.90;;;;;;5040340;28;20474;-58
2021/11/07 03:55:15;;;;;;;1.50;1.40;;;10.00;99.90;;;;;;5052710;28;20987;-57
2021/11/07 03:57:42;;;;;;;4.63;1.03;;;10.00;99.90;;;;;;5051805;28;20451;-57
2021/11/07 04:00:12;;;;;;;1.80;1.30;;;10.00;99.90;;;;;;5016462;28;20441;-58
2021/11/07 04:02:39;;;;;;;2.13;1.63;;;10.00;99.90;;;;;;5016465;28;20463;-57
2021/11/07 04:05:09;;;;;;;2.40;1.13;;;10.00;99.90;;;;;;5030442;28;20448;-57
2021/11/07 04:07:37;;;;;;;2.37;1.53;;;10.00;99.90;;;;;;5012882;28;20572;-57
2021/11/07 04:10:07;;;;;;;1.93;1.73;;;10.00;99.90;;;;;;5013284;28;20808;-57
2021/11/07 04:12:34;;;;;;;2.90;1.77;;;10.00;99.90;;;;;;5012678;28;20453;-58
2021/11/07 04:15:03;;;;;;;2.63;2.13;;;10.00;99.90;;;;;;5013226;28;20493;-57
2021/11/07 04:17:30;;;;;;;1.90;1.80;;;10.00;99.90;;;;;;5011968;28;20523;-57
2021/11/07 04:19:57;;;;;;;2.07;1.70;;;10.00;99.90;;;;;;5012272;28;20459;-57
2021/11/07 04:22:25;;;;;;;2.87;2.10;;;10.00;99.90;;;;;;5031812;28;20814;-57
2021/11/07 04:24:52;;;;;;;2.43;2.20;;;10.00;99.90;;;;;;5031373;28;20444;-58
2021/11/07 04:27:19;;;;;;;3.13;2.47;;;10.00;99.90;;;;;;5031431;28;20563;-58
2021/11/07 04:29:46;;;;;;;5.40;2.13;;;10.00;99.90;;;;;;5025142;28;20443;-58
2021/11/07 04:32:13;;;;;;;2.77;2.50;;;10.00;99.90;;;;;;5012111;28;20457;-57
2021/11/07 04:34:41;;;;;;;2.63;2.10;;;10.00;99.90;;;;;;5012133;28;20835;-57
2021/11/07 04:37:08;;;;;;;3.43;2.90;;;10.00;99.90;;;;;;5011771;28;20859;-57
2021/11/07 04:39:35;;;;;;;2.80;1.97;;;10.00;99.90;;;;;;5012345;28;20436;-57
2021/11/07 04:42:02;;;;;;;2.93;2.73;;;10.00;99.90;;;;;;5011901;28;20457;-57
2021/11/07 04:44:30;;;;;;;4.37;2.33;;;10.00;99.90;;;;;;5011980;28;20444;-57
2021/11/07 04:46:59;;;;;;;2.23;1.83;;;10.00;99.90;;;;;;5011236;28;20953;-57
2021/11/07 04:49:26;;;;;;;2.33;2.13;;;10.00;99.90;;;;;;5012236;28;20936;-58
2021/11/07 04:51:55;;;;;;;2.70;2.13;;;10.00;99.90;;;;;;5025405;28;20457;-58
2021/11/07 04:54:23;;;;;;;2.20;2.00;;;10.00;99.90;;;;;;5051743;28;20415;-58
2021/11/07 04:56:50;;;;;;;3.97;2.33;;;10.00;99.90;;;;;;5051025;28;20482;-57
2021/11/07 04:59:17;;;;;;;3.43;2.80;;;10.00;99.90;;;;;;5034375;28;20451;-58
2021/11/07 05:01:44;;;;;;;2.50;2.30;;;10.00;99.90;;;;;;5011626;28;20456;-57
2021/11/07 05:04:11;;;;;;;2.40;2.20;;;10.00;99.90;;;;;;5012025;28;20790;-57
2021/11/07 05:06:38;;;;;;;2.33;2.10;;;10.10;99.90;;;;;;5024395;28;20566;-57
2021/11/07 05:09:05;;;;;;;3.17;2.73;;;10.10;99.90;;;;;;5031758;28;20420;-57
2021/11/07 05:11:32;;;;;;;2.80;2.60;;;10.10;99.90;;;;;;5031143;28;20483;-57
2021/11/07 05:13:59;;;;;;;3.93;2.90;;;10.10;99.90;;;;;;5028283;28;20435;-57
2021/11/07 05:16:26;;;;;;;3.07;2.77;;;10.10;99.90;;;;;;5010911;28;20549;-57
2021/11/07 05:18:53;;;;;;;4.50;2.70;;;10.10;99.90;;;;;;5012131;28;20429;-58
2021/11/07 05:21:22;;;;;;;4.40;3.90;;;10.10;99.90;;;;;;5017666;28;21012;-58
2021/11/07 05:23:49;;;;;;;2.80;2.60;;;10.10;99.90;;;;;;5031876;28;20415;-57
2021/11/07 05:26:16;;;;;;;2.67;2.43;;;10.10;99.90;;;;;;5030588;28;20466;-57
2021/11/07 05:28:43;;;;;;;2.73;2.53;;;10.10;99.90;;;;;;5027661;28;20437;-57
2021/11/07 05:31:11;;;;;;;4.10;3.10;;;10.10;99.90;;;;;;5011318;28;20456;-58
2021/11/07 05:33:37;;;;;;;3.30;2.90;;;10.20;99.90;;;;;;4994320;28;20425;-58
2021/11/07 05:36:04;;;;;;;3.57;2.70;;;10.20;99.90;;;;;;5013333;28;20551;-57
2021/11/07 05:38:31;;;;;;;2.80;2.60;;;10.20;99.90;;;;;;5015469;28;20941;-58
2021/11/07 05:40:58;;;;;;;4.00;2.80;;;10.20;99.90;;;;;;5015145;28;20455;-57
2021/11/07 05:43:25;;;;;;;3.77;2.57;;;10.20;99.90;;;;;;4999003;28;20424;-58
2021/11/07 05:45:52;;;;;;;2.90;2.30;;;10.20;99.90;;;;;;5014791;28;20473;-57
2021/11/07 05:48:19;;;;;;;3.10;2.80;;;10.20;99.90;;;;;;4997898;28;20480;-58
2021/11/07 05:50:47;;;;;;;2.70;2.50;;;10.20;99.90;;;;;;5015428;28;20432;-58
2021/11/07 05:53:14;;;;;;;3.03;2.70;;;10.20;99.90;;;;;;5051132;28;20423;-57
2021/11/07 05:55:41;;;;;;;2.50;2.30;;;10.20;99.90;;;;;;5054426;28;20472;-58
2021/11/07 05:58:08;;;;;;;2.60;2.40;;;10.20;99.90;;;;;;5054956;28;20979;-58
2021/11/07 06:00:36;;;;;;;3.37;2.60;;;10.20;99.90;;;;;;5034189;28;20943;-58
2021/11/07 06:03:06;;;;;;;2.60;2.40;;;10.20;99.90;;;;;;5014998;28;20472;-57
2021/11/07 06:05:35;;;;;;;2.97;2.77;;;10.20;99.90;;;;;;5014973;28;20886;-57
2021/11/07 06:08:03;;;;;;;3.40;3.10;;;10.10;99.90;;;;;;5014618;28;20475;-57
2021/11/07 06:10:34;;;;;;;2.97;2.77;;;10.10;99.90;;;;;;5014864;28;20484;-58
2021/11/07 06:13:02;;;;;;;2.27;2.07;;;10.10;99.90;;;;;;5014765;28;20432;-58
2021/11/07 06:15:30;;;;;;;3.43;2.67;;;10.10;99.90;;;;;;5015007;28;20471;-57
2021/11/07 06:17:58;;;;;;;2.90;2.67;;;10.10;99.90;;;;;;5014141;28;20456;-58
2021/11/07 06:20:25;;;;;;;2.97;2.67;;;10.10;99.90;;;;;;5015294;28;20443;-57
2021/11/07 06:22:51;;;;;;;4.00;3.07;;;10.10;99.90;;;;;;5014068;28;20464;-57
2021/11/07 06:25:18;;;;;;;3.10;2.40;;;10.20;99.90;;;;;;4997466;28;20472;-57
2021/11/07 06:27:45;;;;;;;3.20;2.60;;;10.10;99.90;;;;;;5013809;28;20476;-58
2021/11/07 06:30:12;;;;;;;2.63;2.43;;;10.10;99.90;;;;;;5014620;28;20448;-57
2021/11/07 06:32:39;;;;;;;3.33;2.40;;;10.20;99.90;;;;;;4996751;28;20456;-58
2021/11/07 06:35:10;;;;;;;4.60;2.77;;;10.20;99.90;;;;;;5014628;28;20440;-57
2021/11/07 06:37:37;;;;;;;3.20;2.90;;;10.20;99.90;;;;;;5037476;28;20477;-57
2021/11/07 06:40:05;;;;;;;3.60;3.30;;;10.20;99.90;;;;;;5054412;28;20774;-58
2021/11/07 06:42:31;;;;;;;3.47;3.10;;;10.30;99.90;;;;;;5052298;28;20466;-57
2021/11/07 06:44:59;;;;;;;4.87;3.50;;;10.30;99.90;;;;;;5040942;28;20926;-57
2021/11/07 06:47:26;;;;;;;4.37;3.40;;;10.30;99.90;;;;;;4994689;28;20820;-57
2021/11/07 06:49:53;;;;;;;2.70;2.50;;;10.30;99.90;;;;;;5014215;28;20421;-57
2021/11/07 06:52:20;;;;;;;4.10;3.80;;;10.30;99.90;;;;;;5034740;28;20810;-58
2021/11/07 06:54:48;;;;;;;4.20;3.17;;;10.30;99.90;;;;;;5053927;28;20843;-57
2021/11/07 06:57:15;;;;;;;4.97;3.10;;;10.30;99.90;;;;;;5052857;28;20498;-57
2021/11/07 06:59:42;;;;;;;7.37;4.27;;;10.30;99.90;;;;;;5053846;28;20438;-57
2021/11/07 07:02:09;;;;;;;5.20;3.60;;;10.40;99.90;;;;;;5016184;28;20826;-57
2021/11/07 07:04:36;;;;;;;4.40;3.40;;;10.30;99.90;;;;;;5013895;28;20441;-58
2021/11/07 07:07:04;;;;;;;5.73;4.50;;;10.40;99.90;;;;;;4995443;28;20479;-57
2021/11/07 07:09:38;;;;;;;6.50;4.20;;;10.40;99.90;;;;;;4996687;28;20424;-57
2021/11/07 07:12:15;;;;;;;4.03;3.63;;;10.40;99.90;;;;;;4995786;28;20496;-58
2021/11/07 07:14:51;;;;;;;4.57;4.17;;;10.40;99.90;;;;;;5014093;28;20460;-58
2021/11/07 07:17:33;;;;;;;7.50;3.53;;;10.40;99.90;;;;;;5013567;28;20460;-58
2021/11/07 07:23:10;;;;;;;5.50;4.03;;;10.40;99.90;;;;;;5013195;28;20556;-58
2021/11/07 07:33:40;;;;;;;4.23;3.93;;;10.40;99.90;;;;;;5013461;28;20934;-57
2021/11/07 07:36:07;;;;;;;6.47;3.70;;;10.40;99.90;;;;;;5012665;28;20561;-57
2021/11/07 07:38:34;;;;;;;5.70;3.90;;;10.40;99.90;;;;;;5013404;28;20519;-57
2021/11/07 07:41:01;;;;;;;6.20;3.87;;;10.40;99.90;;;;;;5012858;28;20463;-57
2021/11/07 07:43:30;;;;;;;4.80;4.30;;;10.40;99.90;;;;;;5013207;28;20428;-57
2021/11/07 07:46:02;;;;;;;5.17;4.70;;;10.40;99.90;;;;;;5002655;28;20476;-57
2021/11/07 07:48:30;;;;;;;4.77;4.40;;;10.40;99.90;;;;;;5011844;28;20465;-57
2021/11/07 07:50:57;;;;;;;5.10;4.60;;;10.40;99.90;;;;;;5012299;28;20448;-58
2021/11/07 07:53:25;;;;;;;4.87;4.23;;;10.40;99.90;;;;;;5033589;28;20435;-57
2021/11/07 07:55:52;;;;;;;7.27;5.97;;;10.30;99.90;;;;;;5034642;28;20533;-58
2021/11/07 07:58:20;;;;;;;6.53;5.47;;;10.40;99.90;;;;;;5030197;28;20928;-58
2021/11/07 08:00:46;;;;;;;6.60;5.33;;;10.30;99.90;;;;;;5012228;28;20428;-58
2021/11/07 08:03:14;;;;;;;5.40;4.90;;;10.30;99.90;;;;;;4995571;28;20430;-58
2021/11/07 08:05:41;;;;;;;5.63;5.13;;;10.30;99.90;;;;;;5012524;28;20551;-58
2021/11/07 08:08:07;;;;;;;8.33;4.70;;;10.30;99.90;;;;;;5012587;28;20870;-58
2021/11/07 08:10:34;;;;;;;5.40;5.00;;;10.30;99.90;;;;;;5012769;28;20413;-58
2021/11/07 08:13:01;;;;;;;6.23;4.87;;;10.30;99.90;;;;;;5012145;28;20456;-58
2021/11/07 08:15:28;;;;;;;5.80;4.93;;;10.30;99.90;;;;;;5012593;28;20457;-58
2021/11/07 08:17:57;;;;;;;7.07;6.17;;;10.30;99.90;;;;;;5011878;28;20498;-58
2021/11/07 08:20:24;;;;;;;6.80;6.10;;;10.40;99.90;;;;;;5014061;28;21022;-58
2021/11/07 08:22:53;;;;;;;7.57;5.97;;;10.40;99.90;;;;;;5031796;28;20832;-58
2021/11/07 08:25:21;;;;;;;8.40;5.80;;;10.40;99.90;;;;;;5032272;28;20534;-58
2021/11/07 08:27:51;;;;;;;5.47;4.80;;;10.40;99.90;;;;;;5049224;28;20921;-57
2021/11/07 08:30:22;;;;;;;6.60;5.70;;;10.50;99.90;;;;;;5029513;28;20950;-57
2021/11/07 08:32:50;;;;;;;5.87;4.93;;;10.50;99.90;;;;;;5031584;28;20747;-58
2021/11/07 08:35:17;;;;;;;9.67;5.80;;;10.50;99.90;;;;;;5046104;28;20859;-58
2021/11/07 08:37:53;;;;;;;9.53;4.83;;;10.60;99.90;;;;;;5022495;28;20467;-58
2021/11/07 08:40:29;;;;;;;4.70;4.17;;;10.70;99.90;;;;;;5034291;28;20435;-58
2021/11/07 08:43:06;;;;;;;6.87;4.80;;;10.70;99.90;;;;;;5039582;28;20533;-58
2021/11/07 09:07:17;;;;;;;8.30;3.80;;;10.90;99.90;;;;;;5030690;28;20462;-58
2021/11/07 09:09:45;;;;;;;4.90;4.40;;;10.90;99.90;;;;;;5031429;28;20933;-57
2021/11/07 09:12:12;;;;;;;9.63;3.97;;;10.90;99.90;;;;;;5016101;28;20469;-58
2021/11/07 09:14:40;;;;;;;10.20;5.33;;;10.90;99.90;;;;;;5012120;28;20535;-57
2021/11/07 09:17:13;;;;;;;6.50;4.77;;;10.90;99.90;;;;;;5029723;28;20831;-58
2021/11/07 09:19:42;;;;;;;9.10;4.53;;;10.90;99.90;;;;;;5002901;28;165860;-58
2021/11/07 09:23:07;;;;;;;8.53;4.60;;;10.90;99.90;;;;;;5061920;27;117657;-58
2021/11/07 09:25:49;;;;;;;11.10;5.10;;;10.90;99.90;;;;;;5084853;27;20968;-59
2021/11/07 09:30:44;;;;;;;8.13;4.50;;;11.00;99.90;;;;;;5023553;27;20561;-56
2021/11/07 09:33:16;;;;;;;10.37;5.33;;;11.10;99.90;;;;;;5037639;28;20457;-57
2021/11/07 09:36:02;;;;;;;14.17;6.90;;;11.20;99.90;;;;;;5025602;28;20887;-57
2021/11/07 09:38:32;;;;;;;11.93;5.80;;;11.20;99.90;;;;;;5026690;28;20957;-57
2021/11/07 09:41:17;;;;;;;11.33;5.10;;;11.30;99.90;;;;;;5046522;28;20469;-58
2021/11/07 09:43:48;;;;;;;8.43;5.83;;;11.30;99.90;;;;;;5046865;28;20497;-56
2021/11/07 09:46:29;;;;;;;6.30;5.10;;;11.40;99.90;;;;;;5046087;28;20467;-56
2021/11/07 09:49:01;;;;;;;10.83;5.50;;;11.40;99.90;;;;;;5029779;28;20551;-57
2021/11/07 09:51:34;;;;;;;9.90;5.20;;;11.50;99.90;;;;;;5028400;28;20472;-61
2021/11/07 09:54:03;;;;;;;10.77;5.20;;;11.50;99.90;;;;;;5028999;28;20429;-61
2021/11/07 09:56:32;;;;;;;7.30;5.23;;;11.40;99.90;;;;;;5027734;28;20460;-60
2021/11/07 09:59:01;;;;;;;10.70;5.70;;;11.40;99.90;;;;;;5036730;28;20530;-60
2021/11/07 10:01:33;;;;;;;11.90;4.50;;;11.40;99.90;;;;;;5048085;28;20576;-60
2021/11/07 10:04:03;;;;;;;12.20;5.70;;;11.30;99.90;;;;;;5048401;28;20869;-61
2021/11/07 10:06:36;;;;;;;8.37;4.53;;;11.40;99.90;;;;;;5057621;28;20553;-59
2021/11/07 10:09:07;;;;;;;8.30;4.40;;;11.50;99.90;;;;;;5068308;28;20485;-59
2021/11/07 10:11:40;;;;;;;13.90;4.80;;;11.50;99.90;;;;;;5067706;28;20470;-62
2021/11/07 10:14:14;;;;;;;12.57;5.07;;;11.60;99.90;;;;;;5041054;28;20450;-62
2021/11/07 10:16:48;;;;;;;6.00;4.47;;;11.60;99.90;;;;;;5027671;28;20471;-60
2021/11/07 10:19:24;;;;;;;15.10;5.13;;;11.70;99.90;;;;;;5026989;28;20529;-59
2021/11/07 10:21:58;;;;;;;8.00;4.87;;;11.60;99.90;;;;;;5041558;28;20464;-61
2021/11/07 10:24:30;;;;;;;9.03;4.70;;;11.60;99.90;;;;;;5046360;28;20542;-62
2021/11/07 10:27:01;;;;;;;13.97;5.50;;;11.50;99.90;;;;;;5047504;28;20486;-61
2021/11/07 10:29:34;;;;;;;12.93;4.77;;;11.60;99.90;;;;;;5041336;28;20476;-61
2021/11/07 10:32:09;;;;;;;8.47;4.73;;;11.60;99.90;;;;;;5047356;28;20523;-61
2021/11/07 10:35:05;;;;;;;9.13;4.30;;;11.70;99.90;;;;;;5041744;28;20431;-61
2021/11/07 10:43:42;;;;;;;10.50;5.13;;;11.80;99.90;;;;;;5029774;28;20459;-61
2021/11/07 10:46:30;;;;;;;13.57;6.20;;;11.90;99.90;;;;;;5034103;28;20610;-62
2021/11/07 10:52:08;;;;;;;6.83;4.67;;;12.00;99.90;;;;;;5018404;28;20466;-61
2021/11/07 10:54:42;;;;;;;13.43;5.20;;;11.90;99.90;;;;;;5014513;28;20437;-61
2021/11/07 10:57:16;;;;;;;9.17;4.90;;;11.80;99.90;;;;;;5013903;28;20492;-60
2021/11/07 11:00:10;;;;;;;9.67;4.33;;;11.70;99.90;;;;;;5014539;28;20525;-61
2021/11/07 11:02:40;;;;;;;9.03;4.17;;;11.60;99.90;;;;;;5026403;28;20847;-62
2021/11/07 11:05:15;;;;;;;8.70;4.87;;;11.60;99.90;;;;;;5031646;28;20860;-62
2021/11/07 11:07:56;;;;;;;11.40;5.30;;;11.60;99.90;;;;;;5013695;28;20471;-62
2021/11/07 11:10:31;;;;;;;13.10;5.53;;;11.50;99.90;;;;;;5020962;28;20484;-61
2021/11/07 11:13:16;;;;;;;12.33;5.23;;;11.50;99.90;;;;;;5027061;28;20853;-62
2021/11/07 11:16:07;;;;;;;16.60;5.93;;;11.40;99.90;;;;;;5031672;28;20455;-61
2021/11/07 11:24:36;;;;;;;6.30;4.90;;;11.40;99.90;;;;;;5023964;28;20445;-62
2021/11/07 11:27:13;;;;;;;7.90;3.60;;;11.40;99.90;;;;;;5029523;28;20512;-62
2021/11/07 11:29:50;;;;;;;11.37;4.63;;;11.40;99.90;;;;;;5031089;28;20467;-61
2021/11/07 11:32:24;;;;;;;12.40;4.90;;;11.40;99.90;;;;;;5032120;28;20468;-62
2021/11/07 11:34:58;;;;;;;7.90;4.87;;;11.40;99.90;;;;;;5032104;28;20549;-62
2021/11/07 11:37:34;;;;;;;8.77;3.80;;;11.40;99.90;;;;;;5029596;28;20584;-62
2021/11/07 11:40:07;;;;;;;9.00;4.07;;;11.30;99.90;;;;;;5031660;28;20460;-61
2021/11/07 11:42:41;;;;;;;8.37;4.53;;;11.30;99.90;;;;;;5029992;28;20460;-61
2021/11/07 11:45:11;;;;;;;15.37;4.73;;;11.30;99.90;;;;;;5027861;28;20934;-61
2021/11/07 11:48:06;;;;;;;15.00;3.77;;;11.30;99.90;;;;;;5022750;28;20457;-62
2021/11/07 11:50:49;;;;;;;9.20;3.90;;;11.30;99.90;;;;;;5022777;28;20472;-62
2021/11/07 11:56:25;;;;;;;14.03;5.40;;;11.40;99.90;;;;;;5005097;23;21010;-61
2021/11/07 11:58:56;;;;;;;7.50;3.00;;;11.50;99.90;;;;;;4898719;29;20455;-61
2021/11/07 12:01:28;;;;;;;8.13;3.40;;;11.60;99.90;;;;;;4897303;29;20463;-60
2021/11/07 12:04:14;;;;;;;12.43;3.47;;;11.70;99.90;;;;;;4896860;29;20434;-60
2021/11/07 12:06:47;;;;;;;13.23;4.17;;;11.70;99.90;;;;;;4896329;29;20513;-61
2021/11/07 12:09:37;;;;;;;9.10;3.50;;;11.70;99.90;;;;;;4897052;29;20861;-61
2021/11/07 12:12:14;;;;;;;7.40;3.33;;;11.60;99.90;;;;;;4894769;29;20520;-61
2021/11/07 12:14:57;;;;;;;13.43;4.10;;;11.50;99.90;;;;;;4897434;29;20458;-61
2021/11/07 12:17:37;;;;;;;8.23;2.87;;;11.50;99.90;;;;;;4936302;29;20461;-61
2021/11/07 12:20:25;;;;;;;6.77;3.03;;;11.60;99.90;;;;;;4934964;29;20441;-61
2021/11/07 12:23:21;;;;;;;11.20;3.20;;;11.60;99.90;;;;;;4931435;29;20440;-60
2021/11/07 12:25:50;;;;;;;8.03;2.53;;;11.60;99.90;;;;;;4931430;29;20482;-60
2021/11/07 12:28:40;;;;;;;11.30;3.67;;;11.60;99.90;;;;;;4935203;29;20781;-60
2021/11/07 12:31:09;;;;;;;8.07;3.57;;;11.50;99.90;;;;;;4934358;29;20480;-60
2021/11/07 12:33:49;;;;;;;12.20;3.63;;;11.50;99.90;;;;;;4935001;29;20926;-61
2021/11/07 12:36:32;;;;;;;10.50;3.43;;;11.50;99.90;;;;;;4925165;29;20510;-61
2021/11/07 12:41:48;;;;;;;10.60;4.90;;;11.60;99.90;;;;;;4922320;29;20493;-60
2021/11/07 12:44:26;;;;;;;14.57;3.27;;;11.70;99.90;;;;;;4898676;29;20447;-60
2021/11/07 12:46:57;;;;;;;11.40;3.00;;;11.90;99.90;;;;;;4915516;29;20504;-61
2021/11/07 12:49:27;;;;;;;10.30;3.07;;;12.10;99.90;;;;;;4915616;29;20549;-60
2021/11/07 12:51:58;;;;;;;8.60;3.10;;;12.10;99.90;;;;;;4924773;29;20489;-61
2021/11/07 12:54:32;;;;;;;9.70;3.53;;;12.10;99.90;;;;;;4922205;29;20446;-61
2021/11/07 12:57:03;;;;;;;14.33;4.30;;;12.20;99.90;;;;;;4919812;29;21008;-61
2021/11/07 12:59:37;;;;;;;4.90;2.40;;;12.30;99.90;;;;;;4914540;29;20443;-61
2021/11/07 13:02:25;;;;;;;9.90;3.23;;;12.20;99.90;;;;;;4914901;29;21027;-61
2021/11/07 13:05:00;;;;;;;8.93;2.63;;;12.10;99.90;;;;;;4925750;29;20836;-61
2021/11/07 13:07:33;;;;;;;12.20;4.13;;;12.00;99.90;;;;;;4915831;29;20458;-60
2021/11/07 13:10:07;;;;;;;9.30;4.03;;;11.90;99.90;;;;;;4927178;29;20449;-61
2021/11/07 13:12:39;;;;;;;5.67;3.40;;;11.80;99.90;;;;;;4925503;29;20455;-62
2021/11/07 13:21:42;;;;;;;12.70;3.90;;;11.80;99.90;;;;;;4874817;29;20455;-62
2021/11/07 13:24:22;;;;;;;6.50;3.60;;;11.80;99.90;;;;;;4876655;29;20443;-62
2021/11/07 13:27:03;;;;;;;12.37;3.80;;;11.90;99.90;;;;;;4916018;29;20476;-62
2021/11/07 13:29:40;;;;;;;9.03;3.33;;;11.90;99.90;;;;;;4931290;29;20440;-62
2021/11/07 13:32:29;;;;;;;12.20;3.63;;;12.00;99.90;;;;;;4916462;29;20504;-62
2021/11/07 13:35:08;;;;;;;12.47;3.70;;;12.00;99.90;;;;;;4930780;29;20468;-62
2021/11/07 13:37:41;;;;;;;14.63;5.00;;;11.90;99.90;;;;;;4933363;29;20516;-63
2021/11/07 13:40:21;;;;;;;15.10;5.70;;;11.80;99.90;;;;;;4933215;29;20798;-62
2021/11/07 13:42:49;;;;;;;13.77;3.10;;;11.70;99.90;;;;;;4932182;29;20439;-62
2021/11/07 13:45:23;;;;;;;7.53;3.50;;;11.70;99.90;;;;;;4932859;29;20453;-62
2021/11/07 13:47:52;;;;;;;11.20;3.30;;;11.80;99.90;;;;;;4916418;29;20444;-62
2021/11/07 13:50:25;;;;;;;14.63;4.70;;;11.90;99.90;;;;;;4928013;28;20463;-62
2021/11/07 13:52:53;;;;;;;8.70;3.50;;;11.90;99.90;;;;;;4933705;29;20468;-62
2021/11/07 13:55:27;;;;;;;15.17;4.10;;;11.90;99.90;;;;;;4915583;29;20622;-62
2021/11/07 13:57:56;;;;;;;9.80;3.37;;;11.80;99.90;;;;;;4939762;29;20448;-61
2021/11/07 14:00:27;;;;;;;7.43;3.70;;;11.70;99.90;;;;;;4942833;29;20470;-60
2021/11/07 14:02:58;;;;;;;7.87;3.93;;;11.60;99.90;;;;;;4934488;29;20938;-61
2021/11/07 14:05:26;;;;;;;9.70;4.00;;;11.60;99.90;;;;;;4913654;29;20508;-60
2021/11/07 14:08:02;;;;;;;9.00;3.10;;;11.60;99.90;;;;;;4932652;29;20444;-61
2021/11/07 14:10:32;;;;;;;12.50;3.63;;;11.60;99.90;;;;;;4931256;29;20959;-61
2021/11/07 14:13:08;;;;;;;8.33;3.43;;;11.50;99.90;;;;;;4915053;29;20449;-60
2021/11/07 14:15:44;;;;;;;7.07;2.70;;;11.60;99.90;;;;;;4929416;28;20486;-60
2021/11/07 14:18:17;;;;;;;6.17;2.53;;;11.60;99.90;;;;;;4931608;29;20496;-61
2021/11/07 14:20:49;;;;;;;9.50;3.20;;;11.50;99.90;;;;;;4930135;29;20481;-60
2021/11/07 14:23:27;;;;;;;15.00;3.70;;;11.50;99.90;;;;;;4934650;29;20440;-60
2021/11/07 14:26:06;;;;;;;13.40;4.00;;;11.40;99.90;;;;;;4933173;29;20494;-60
2021/11/07 14:28:49;;;;;;;9.60;3.77;;;11.40;99.90;;;;;;4934772;29;20452;-61
2021/11/07 14:31:21;;;;;;;6.53;3.40;;;11.30;99.90;;;;;;4932176;29;20476;-60
2021/11/07 14:33:55;;;;;;;10.00;3.23;;;11.30;99.90;;;;;;4936331;29;20440;-60
2021/11/07 14:36:31;;;;;;;11.70;4.43;;;11.30;99.90;;;;;;4936751;29;20476;-61